Targu-Mures, Romania
Current Conditions -  °F | °C
As of 7:00 AM on Tuesday 21 Oct 2014 (Local Time) from LRTM Reporting Station
Haze Haze  
Wind Chill: 50°   Ceiling: Unl
Heat Index: 50°   Visibility: 3mi
Dew Point: 50°   Wind: 2mph
Humidity: 100%   Direction: NA
Pressure: 29.91"   Gusts: NA
Location:  46.55°N, 24.56°E
Report Text: LRTM 210400Z VRB02KT 5000 BR FEW010 10/10 Q1013
Loading
Personal Weather Stations






























Interactive Weather Map
Tropical Storm Tracking
New forecast layout! Learn more

10-Day Weather Forecast

Advertisements
Track Severe Weather on mobile